This is the latest recevied weather packets stored in our database for station/object WK7G. If no packets are shown the sender has not sent any weather packets the latest 10 day(s).
| Time | Temp. | Humidity | Pressure | Rain* | Wind** | Luminosity | Snow |
|---|---|---|---|---|---|---|---|
| 1777663162 | 13.89° C | 26% | 1014.9 hPa | 0 mm | - | 827 W/m² | - |
| 1777662859 | 13.89° C | 28% | 1015.1 hPa | 0 mm | - | 832 W/m² | - |
| 1777662556 | 13.33° C | 26% | 1015.1 hPa | 0 mm | - | 824 W/m² | - |
| 1777662252 | 12.78° C | 28% | 1014.9 hPa | 0 mm | - | 830 W/m² | - |
| 1777661952 | 12.78° C | 29% | 1015.3 hPa | 0 mm | - | 849 W/m² | - |
| 1777661649 | 13.33° C | 31% | 1015.2 hPa | 0 mm | - | 867 W/m² | - |
| 1777661344 | 12.78° C | 34% | 1015.2 hPa | 0 mm | - | 904 W/m² | - |
| 1777661041 | 13.33° C | 31% | 1015.3 hPa | 0 mm | - | 867 W/m² | - |
| 1777660736 | 13.33° C | 35% | 1015.3 hPa | 0 mm | - | 907 W/m² | - |
| 1777660433 | 12.22° C | 35% | 1015.4 hPa | 0 mm | - | 872 W/m² | - |
| 1777660130 | 12.78° C | 35% | 1015.4 hPa | 0 mm | - | 925 W/m² | - |
| 1777659826 | 12.22° C | 32% | 1015.5 hPa | 0 mm | - | 874 W/m² | - |
| 1777659523 | 12.22° C | 35% | 1015.8 hPa | 0 mm | - | 882 W/m² | - |
| 1777659220 | 12.22° C | 35% | 1015.5 hPa | 0 mm | - | 899 W/m² | - |
| 1777658918 | 11.67° C | 35% | 1015.5 hPa | 0 mm | - | 900 W/m² | - |
| 1777658613 | 12.78° C | 36% | 1015.7 hPa | 0 mm | - | 913 W/m² | - |
| 1777658311 | 12.78° C | 37% | 1015.4 hPa | 0 mm | - | 897 W/m² | - |
| 1777658007 | 12.22° C | 34% | 1015.8 hPa | 0 mm | - | 878 W/m² | - |
| 1777657704 | 11.67° C | 36% | 1015.5 hPa | 0 mm | - | 859 W/m² | - |
| 1777657401 | 12.22° C | 36% | 1015.7 hPa | 0 mm | - | 822 W/m² | - |
| 1777657100 | 11.67° C | 36% | 1015.7 hPa | 0 mm | - | 832 W/m² | - |
| 1777656797 | 11.67° C | 38% | 1015.8 hPa | 0 mm | - | 849 W/m² | - |
| 1777656492 | 11.67° C | 37% | 1015.9 hPa | 0 mm | - | 858 W/m² | - |
| 1777656187 | 11.11° C | 35% | 1015.7 hPa | 0 mm | - | 869 W/m² | - |
| 1777655883 | 10.56° C | 38% | 1015.7 hPa | 0 mm | - | 872 W/m² | - |
* Rain latest hour (hover to see other rain measurements)
** Current wind speed in m/s (hover to see current wind gust speed)